createdAt,value
2023-03-01T00:00:08.958Z,60.30
2023-03-01T00:00:18.958Z,56.30
2023-03-01T00:00:28.966Z,57.20
2023-03-01T00:00:38.965Z,57.30
2023-03-01T00:00:48.976Z,61.30
2023-03-01T00:00:58.996Z,63.60
2023-03-01T00:01:09.006Z,68.70
2023-03-01T00:01:19.088Z,72.60
2023-03-01T00:01:28.940Z,66.00
2023-03-01T00:01:38.950Z,62.90
2023-03-01T00:01:49.049Z,60.60
2023-03-01T00:01:59.065Z,64.60
2023-03-01T00:02:08.957Z,63.10
2023-03-01T00:02:18.991Z,59.20
2023-03-01T00:02:29.001Z,51.40
2023-03-01T00:02:38.949Z,53.10
2023-03-01T00:02:48.974Z,52.40
2023-03-01T00:02:58.941Z,62.30
2023-03-01T00:03:09.047Z,59.40
2023-03-01T00:03:19.002Z,55.70
2023-03-01T00:03:29.032Z,52.30
2023-03-01T00:03:39.004Z,51.20
2023-03-01T00:03:49.630Z,50.80
2023-03-01T00:03:58.931Z,50.70
2023-03-01T00:04:08.963Z,52.00
2023-03-01T00:04:18.926Z,58.00
2023-03-01T00:04:28.928Z,58.70
2023-03-01T00:04:38.967Z,64.40
2023-03-01T00:04:48.930Z,65.90
2023-03-01T00:04:58.927Z,56.30
2023-03-01T00:05:08.974Z,52.40
2023-03-01T00:05:18.943Z,52.50
2023-03-01T00:05:29.458Z,67.40
2023-03-01T00:05:38.936Z,71.30
2023-03-01T00:05:48.937Z,75.20
2023-03-01T00:05:58.975Z,60.20
2023-03-01T00:06:08.957Z,60.20
2023-03-01T00:06:19.529Z,57.90
2023-03-01T00:06:29.406Z,63.30
2023-03-01T00:06:38.982Z,64.80
2023-03-01T00:06:48.936Z,61.70
2023-03-01T00:06:58.960Z,61.90
2023-03-01T00:07:08.919Z,59.00
2023-03-01T00:07:18.916Z,60.90
2023-03-01T00:07:28.923Z,61.20
2023-03-01T00:07:38.952Z,67.80
2023-03-01T00:07:48.927Z,62.70
2023-03-01T00:07:58.955Z,57.40
2023-03-01T00:08:08.932Z,56.60
2023-03-01T00:08:19.025Z,60.90
2023-03-01T00:08:28.925Z,62.80
2023-03-01T00:08:38.944Z,60.70
2023-03-01T00:08:48.926Z,58.60
2023-03-01T00:08:58.972Z,66.60
2023-03-01T00:09:08.923Z,61.70
2023-03-01T00:09:18.925Z,62.40
2023-03-01T00:09:28.947Z,54.60
2023-03-01T00:09:38.920Z,60.80
2023-03-01T00:09:48.925Z,61.60
2023-03-01T00:09:58.952Z,73.70
2023-03-01T00:10:08.968Z,69.90
2023-03-01T00:10:19.061Z,74.10
2023-03-01T00:10:28.936Z,64.30
2023-03-01T00:10:38.910Z,67.80
2023-03-01T00:10:48.942Z,62.60
2023-03-01T00:10:58.930Z,61.90
2023-03-01T00:11:08.947Z,57.50
2023-03-01T00:11:19.008Z,60.90
2023-03-01T00:11:29.008Z,64.70
2023-03-01T00:11:39.524Z,60.10
2023-03-01T00:11:48.981Z,57.60
2023-03-01T00:11:59.513Z,55.50
2023-03-01T00:12:09.453Z,58.80
2023-03-01T00:12:19.076Z,62.90
2023-03-01T00:12:28.912Z,58.50
2023-03-01T00:12:39.494Z,64.40
2023-03-01T00:12:48.911Z,65.30
2023-03-01T00:12:58.914Z,70.60
2023-03-01T00:13:08.912Z,70.30
2023-03-01T00:13:18.925Z,65.80
2023-03-01T00:13:28.960Z,66.00
2023-03-01T00:13:38.925Z,62.50
2023-03-01T00:13:49.014Z,68.50
2023-03-01T00:13:58.911Z,62.10
2023-03-01T00:14:08.893Z,69.60
2023-03-01T00:14:18.947Z,69.60
2023-03-01T00:14:28.903Z,73.30
2023-03-01T00:14:38.918Z,69.80
2023-03-01T00:14:48.891Z,65.20
2023-03-01T00:14:58.891Z,65.60
2023-03-01T00:15:08.901Z,59.30
2023-03-01T00:15:18.886Z,62.90
2023-03-01T00:15:28.935Z,66.30
2023-03-01T00:15:38.940Z,76.60
2023-03-01T00:15:48.915Z,73.80
2023-03-01T00:15:58.897Z,73.10
2023-03-01T00:16:08.929Z,70.40
2023-03-01T00:16:18.950Z,68.40
2023-03-01T00:16:29.345Z,66.10
2023-03-01T00:16:38.974Z,60.10
2023-03-01T00:16:48.967Z,66.20
2023-03-01T00:16:58.944Z,63.70
2023-03-01T00:17:09.004Z,59.50
2023-03-01T00:17:18.907Z,54.40
2023-03-01T00:17:28.884Z,57.60
2023-03-01T00:17:38.908Z,64.00
2023-03-01T00:17:48.880Z,66.40
2023-03-01T00:17:58.891Z,66.70
2023-03-01T00:18:08.897Z,62.20
2023-03-01T00:18:18.884Z,55.00
2023-03-01T00:18:29.036Z,61.30
2023-03-01T00:18:38.912Z,60.30
2023-03-01T00:18:48.904Z,63.90
2023-03-01T00:18:58.893Z,54.90
2023-03-01T00:19:08.929Z,60.70
2023-03-01T00:19:18.986Z,59.80
2023-03-01T00:19:28.890Z,58.80
2023-03-01T00:19:38.906Z,58.60
2023-03-01T00:19:48.899Z,65.90
2023-03-01T00:19:58.891Z,70.00
2023-03-01T00:20:08.966Z,71.50
2023-03-01T00:20:18.890Z,68.70
2023-03-01T00:20:29.035Z,71.20
2023-03-01T00:20:38.877Z,67.00
2023-03-01T00:20:48.905Z,52.60
2023-03-01T00:20:58.904Z,50.20
2023-03-01T00:21:08.963Z,51.20
2023-03-01T00:21:19.508Z,61.50
2023-03-01T00:21:28.885Z,57.30
2023-03-01T00:21:38.872Z,52.10
2023-03-01T00:21:48.924Z,51.40
2023-03-01T00:21:58.887Z,54.90
2023-03-01T00:22:09.463Z,64.20
2023-03-01T00:22:18.881Z,67.90
2023-03-01T00:22:28.951Z,70.60
2023-03-01T00:22:38.930Z,59.80
2023-03-01T00:22:48.888Z,52.30
2023-03-01T00:22:58.890Z,48.50
2023-03-01T00:23:08.856Z,53.00
2023-03-01T00:23:18.945Z,57.30
2023-03-01T00:23:28.884Z,64.60
2023-03-01T00:23:38.937Z,62.70
2023-03-01T00:23:48.868Z,63.70
2023-03-01T00:23:58.854Z,60.50
2023-03-01T00:24:08.886Z,57.20
2023-03-01T00:24:18.865Z,57.50
2023-03-01T00:24:28.859Z,59.60
2023-03-01T00:24:39.477Z,61.40
2023-03-01T00:24:48.975Z,60.50
2023-03-01T00:24:58.875Z,57.70
2023-03-01T00:25:08.911Z,52.60
2023-03-01T00:25:18.883Z,53.50
2023-03-01T00:25:28.871Z,59.60
2023-03-01T00:25:38.865Z,64.30
2023-03-01T00:25:48.901Z,57.50
2023-03-01T00:25:58.888Z,51.30
2023-03-01T00:26:08.852Z,59.20
2023-03-01T00:26:18.901Z,63.60
2023-03-01T00:26:29.394Z,68.90
2023-03-01T00:26:38.881Z,57.40
2023-03-01T00:26:48.948Z,57.10
2023-03-01T00:26:58.984Z,54.70
2023-03-01T00:27:08.861Z,51.60
2023-03-01T00:27:18.888Z,55.70
2023-03-01T00:27:28.893Z,66.10
2023-03-01T00:27:38.867Z,73.90
2023-03-01T00:27:48.852Z,67.00
2023-03-01T00:27:58.885Z,55.80
2023-03-01T00:28:08.839Z,59.00
2023-03-01T00:28:19.026Z,61.40
2023-03-01T00:28:28.862Z,66.00
2023-03-01T00:28:38.889Z,68.50
2023-03-01T00:28:49.472Z,65.60
2023-03-01T00:28:58.876Z,63.20
2023-03-01T00:29:08.869Z,50.40
2023-03-01T00:29:18.860Z,48.90
2023-03-01T00:29:28.860Z,48.20
2023-03-01T00:29:38.883Z,50.10
2023-03-01T00:29:48.874Z,55.50
2023-03-01T00:29:58.847Z,53.60
2023-03-01T00:30:08.846Z,54.20
2023-03-01T00:30:18.848Z,50.50
2023-03-01T00:30:28.880Z,49.30
2023-03-01T00:30:38.871Z,49.20
2023-03-01T00:30:49.007Z,48.50
2023-03-01T00:30:59.541Z,48.10
2023-03-01T00:31:08.968Z,47.90
2023-03-01T00:31:18.892Z,47.70
2023-03-01T00:31:28.848Z,45.80
2023-03-01T00:31:38.864Z,44.50
2023-03-01T00:31:48.886Z,44.50
2023-03-01T00:31:58.869Z,46.30
2023-03-01T00:32:09.018Z,46.70
2023-03-01T00:32:18.916Z,46.00
2023-03-01T00:32:28.878Z,47.10
2023-03-01T00:32:38.925Z,48.20
2023-03-01T00:32:48.845Z,47.90
2023-03-01T00:32:59.477Z,47.20
2023-03-01T00:33:08.995Z,47.40
2023-03-01T00:33:18.901Z,47.40
2023-03-01T00:33:28.822Z,46.00
2023-03-01T00:33:38.990Z,44.80
2023-03-01T00:33:48.824Z,44.80
2023-03-01T00:33:58.848Z,44.80
2023-03-01T00:34:08.830Z,46.40
2023-03-01T00:34:18.860Z,50.50
2023-03-01T00:34:28.830Z,52.10
2023-03-01T00:34:38.868Z,55.10
2023-03-01T00:34:48.837Z,47.70
2023-03-01T00:34:58.927Z,47.60
2023-03-01T00:35:08.914Z,48.20
2023-03-01T00:35:18.888Z,52.00
2023-03-01T00:35:28.889Z,52.40
2023-03-01T00:35:38.918Z,50.30
2023-03-01T00:35:48.954Z,51.90
2023-03-01T00:35:58.862Z,48.70
2023-03-01T00:36:08.888Z,57.50
2023-03-01T00:36:18.858Z,51.40
2023-03-01T00:36:29.651Z,49.40
2023-03-01T00:36:38.896Z,47.90
2023-03-01T00:36:49.501Z,49.10
2023-03-01T00:36:58.870Z,52.20
2023-03-01T00:37:09.553Z,53.50
2023-03-01T00:37:18.940Z,53.10
2023-03-01T00:37:28.846Z,51.20
2023-03-01T00:37:38.830Z,51.10
2023-03-01T00:37:48.926Z,49.80
2023-03-01T00:37:58.889Z,45.80
2023-03-01T00:38:08.829Z,45.60
2023-03-01T00:38:18.846Z,47.40
2023-03-01T00:38:28.879Z,51.80
2023-03-01T00:38:38.831Z,48.70
2023-03-01T00:38:48.827Z,47.80
2023-03-01T00:38:59.491Z,48.00
2023-03-01T00:39:08.856Z,50.70
2023-03-01T00:39:18.915Z,52.10
2023-03-01T00:39:28.809Z,54.60
2023-03-01T00:39:38.805Z,55.60
2023-03-01T00:39:48.830Z,50.40
2023-03-01T00:39:58.877Z,49.70
2023-03-01T00:40:08.849Z,47.60
2023-03-01T00:40:18.882Z,47.90
2023-03-01T00:40:28.839Z,48.50
2023-03-01T00:40:38.853Z,48.70
2023-03-01T00:40:48.836Z,48.90
2023-03-01T00:40:58.823Z,47.00
2023-03-01T00:41:08.864Z,46.40
2023-03-01T00:41:19.499Z,46.30
2023-03-01T00:41:28.925Z,48.40
2023-03-01T00:41:38.809Z,50.20
2023-03-01T00:41:48.897Z,51.00
2023-03-01T00:41:58.800Z,49.90
2023-03-01T00:42:08.830Z,48.30
2023-03-01T00:42:18.810Z,49.20
2023-03-01T00:42:28.869Z,56.00
2023-03-01T00:42:38.825Z,61.20
2023-03-01T00:42:48.819Z,55.20
2023-03-01T00:42:58.856Z,52.30
2023-03-01T00:43:08.847Z,51.30
2023-03-01T00:43:18.864Z,59.00
2023-03-01T00:43:28.842Z,56.40
2023-03-01T00:43:38.799Z,53.10
2023-03-01T00:43:48.868Z,55.60
2023-03-01T00:43:58.815Z,59.80
2023-03-01T00:44:08.828Z,57.40
2023-03-01T00:44:18.871Z,51.20
2023-03-01T00:44:28.865Z,50.50
2023-03-01T00:44:38.901Z,47.60
2023-03-01T00:44:48.804Z,48.50
2023-03-01T00:44:58.821Z,49.60
2023-03-01T00:45:08.885Z,60.30
2023-03-01T00:45:18.883Z,63.00
2023-03-01T00:45:28.877Z,63.30
2023-03-01T00:45:38.893Z,57.00
2023-03-01T00:45:48.896Z,57.00
2023-03-01T00:45:58.843Z,58.30
2023-03-01T00:46:08.856Z,55.60
2023-03-01T00:46:18.875Z,57.30
2023-03-01T00:46:29.185Z,54.60
2023-03-01T00:46:38.899Z,64.50
2023-03-01T00:46:48.824Z,55.90
2023-03-01T00:46:58.819Z,57.60
2023-03-01T00:47:08.814Z,48.60
2023-03-01T00:47:18.820Z,48.20
2023-03-01T00:47:28.854Z,47.30
2023-03-01T00:47:39.530Z,48.70
2023-03-01T00:47:48.797Z,50.30
2023-03-01T00:47:58.800Z,49.80
2023-03-01T00:48:08.795Z,53.10
2023-03-01T00:48:18.845Z,53.30
2023-03-01T00:48:29.498Z,49.30
2023-03-01T00:48:38.828Z,49.20
2023-03-01T00:48:48.799Z,51.50
2023-03-01T00:48:58.785Z,52.60
2023-03-01T00:49:08.935Z,57.70
2023-03-01T00:49:18.865Z,51.70
2023-03-01T00:49:28.918Z,51.30
2023-03-01T00:49:38.832Z,50.30
2023-03-01T00:49:48.802Z,56.90
2023-03-01T00:49:58.792Z,61.10
2023-03-01T00:50:08.812Z,67.10
2023-03-01T00:50:18.768Z,55.30
2023-03-01T00:50:28.806Z,56.60
2023-03-01T00:50:38.823Z,51.70
2023-03-01T00:50:48.826Z,57.30
2023-03-01T00:50:58.778Z,61.00
2023-03-01T00:51:08.854Z,67.30
2023-03-01T00:51:18.780Z,61.90
2023-03-01T00:51:28.825Z,59.30
2023-03-01T00:51:38.801Z,64.00
2023-03-01T00:51:48.855Z,69.70
2023-03-01T00:51:58.814Z,65.60
2023-03-01T00:52:09.041Z,56.80
2023-03-01T00:52:18.765Z,51.70
2023-03-01T00:52:28.798Z,51.80
2023-03-01T00:52:38.821Z,55.20
2023-03-01T00:52:48.975Z,53.10
2023-03-01T00:52:58.806Z,61.50
2023-03-01T00:53:08.807Z,60.20
2023-03-01T00:53:18.771Z,68.80
2023-03-01T00:53:28.787Z,56.30
2023-03-01T00:53:38.864Z,55.50
2023-03-01T00:53:48.809Z,52.30
2023-03-01T00:53:58.774Z,55.50
2023-03-01T00:54:08.811Z,52.90
2023-03-01T00:54:18.796Z,57.30
2023-03-01T00:54:28.797Z,61.90
2023-03-01T00:54:38.759Z,57.30
2023-03-01T00:54:48.771Z,50.70
2023-03-01T00:54:58.881Z,50.40
2023-03-01T00:55:08.744Z,55.80
2023-03-01T00:55:18.794Z,54.90
2023-03-01T00:55:28.788Z,62.80
2023-03-01T00:55:38.755Z,50.90
2023-03-01T00:55:48.767Z,51.20
2023-03-01T00:55:58.882Z,51.10
2023-03-01T00:56:08.763Z,58.20
2023-03-01T00:56:18.788Z,59.10
2023-03-01T00:56:29.088Z,53.70
2023-03-01T00:56:38.790Z,71.20
2023-03-01T00:56:48.802Z,69.20
2023-03-01T00:56:58.832Z,63.20
2023-03-01T00:57:08.771Z,54.50
2023-03-01T00:57:18.759Z,50.80
2023-03-01T00:57:28.788Z,56.20
2023-03-01T00:57:38.770Z,49.60
2023-03-01T00:57:48.776Z,51.10
2023-03-01T00:57:59.140Z,49.80
2023-03-01T00:58:09.487Z,51.50
2023-03-01T00:58:18.758Z,52.30
2023-03-01T00:58:28.804Z,52.20
2023-03-01T00:58:38.934Z,51.30
2023-03-01T00:58:48.771Z,51.40
2023-03-01T00:58:58.751Z,57.60
2023-03-01T00:59:08.772Z,59.70
2023-03-01T00:59:18.778Z,56.60
2023-03-01T00:59:28.747Z,52.60
2023-03-01T00:59:38.752Z,56.20
2023-03-01T00:59:48.769Z,60.10
2023-03-01T00:59:59.504Z,57.60
2023-03-01T01:00:08.920Z,56.30
2023-03-01T01:00:18.978Z,60.10
2023-03-01T01:00:28.771Z,66.70
2023-03-01T01:00:39.099Z,57.50
2023-03-01T01:00:48.787Z,51.70
2023-03-01T01:00:58.761Z,52.00
2023-03-01T01:01:08.862Z,58.80
2023-03-01T01:01:18.851Z,66.20
2023-03-01T01:01:28.772Z,64.60
2023-03-01T01:01:38.830Z,62.80
2023-03-01T01:01:48.786Z,61.10
2023-03-01T01:01:58.736Z,63.90
2023-03-01T01:02:08.797Z,64.00
2023-03-01T01:02:18.750Z,64.00
2023-03-01T01:02:28.816Z,59.40
2023-03-01T01:02:39.515Z,54.70
2023-03-01T01:02:48.788Z,55.80
2023-03-01T01:02:58.733Z,59.60
2023-03-01T01:03:09.209Z,64.60
2023-03-01T01:03:18.744Z,60.20
2023-03-01T01:03:28.779Z,57.50
2023-03-01T01:03:38.738Z,56.70
2023-03-01T01:03:48.785Z,53.20
2023-03-01T01:03:58.760Z,53.30
2023-03-01T01:04:09.513Z,52.50
2023-03-01T01:04:19.479Z,56.70
2023-03-01T01:04:28.743Z,57.40
2023-03-01T01:04:38.734Z,68.10
2023-03-01T01:04:48.772Z,69.80
2023-03-01T01:04:58.751Z,75.90
2023-03-01T01:05:08.786Z,71.20
2023-03-01T01:05:18.747Z,61.50
2023-03-01T01:05:28.781Z,61.60
2023-03-01T01:05:38.783Z,63.40
2023-03-01T01:05:48.746Z,65.90
2023-03-01T01:05:58.706Z,70.50
2023-03-01T01:06:08.731Z,65.70
2023-03-01T01:06:18.844Z,65.40
2023-03-01T01:06:29.149Z,60.40
2023-03-01T01:06:38.745Z,61.70
2023-03-01T01:06:48.704Z,59.60
2023-03-01T01:06:58.730Z,61.60
2023-03-01T01:07:08.746Z,61.60
2023-03-01T01:07:18.723Z,64.00
2023-03-01T01:07:28.718Z,69.50
2023-03-01T01:07:38.713Z,62.60
2023-03-01T01:07:48.767Z,65.00
2023-03-01T01:07:58.721Z,63.00
2023-03-01T01:08:08.722Z,69.40
2023-03-01T01:08:19.074Z,70.50
2023-03-01T01:08:28.755Z,60.80
2023-03-01T01:08:38.703Z,65.40
2023-03-01T01:08:48.738Z,63.50
2023-03-01T01:08:58.701Z,59.20
2023-03-01T01:09:08.744Z,54.50
2023-03-01T01:09:18.784Z,53.30
2023-03-01T01:09:28.878Z,60.80
2023-03-01T01:09:38.745Z,63.60
2023-03-01T01:09:48.744Z,62.10
2023-03-01T01:09:58.783Z,68.50
2023-03-01T01:10:08.743Z,60.60
2023-03-01T01:10:18.749Z,66.00
2023-03-01T01:10:29.504Z,58.30
2023-03-01T01:10:38.800Z,63.90
2023-03-01T01:10:48.924Z,67.50
2023-03-01T01:10:58.728Z,69.20
2023-03-01T01:11:09.536Z,73.60
2023-03-01T01:11:18.713Z,70.90
2023-03-01T01:11:28.765Z,76.60
2023-03-01T01:11:38.810Z,66.10
2023-03-01T01:11:48.706Z,64.00
2023-03-01T01:11:58.729Z,61.30
2023-03-01T01:12:08.725Z,62.70
2023-03-01T01:12:18.760Z,58.70
2023-03-01T01:12:28.736Z,54.30
2023-03-01T01:12:38.757Z,57.60
2023-03-01T01:12:48.797Z,63.10
2023-03-01T01:12:58.945Z,57.50
2023-03-01T01:13:08.676Z,56.90
2023-03-01T01:13:18.803Z,56.20
2023-03-01T01:13:29.126Z,60.70
2023-03-01T01:13:38.893Z,52.40
2023-03-01T01:13:48.695Z,54.40
2023-03-01T01:13:58.713Z,54.40
2023-03-01T01:14:08.789Z,64.50
2023-03-01T01:14:18.702Z,54.90
2023-03-01T01:14:28.726Z,55.60
2023-03-01T01:14:38.882Z,55.70
2023-03-01T01:14:48.750Z,60.90
2023-03-01T01:14:58.685Z,55.80
2023-03-01T01:15:08.969Z,54.60
2023-03-01T01:15:18.801Z,51.10
2023-03-01T01:15:28.795Z,52.20
2023-03-01T01:15:38.729Z,51.70
2023-03-01T01:15:48.775Z,51.50
2023-03-01T01:15:58.790Z,52.30
2023-03-01T01:16:08.819Z,54.20
2023-03-01T01:16:18.703Z,56.50
2023-03-01T01:16:29.313Z,49.90
2023-03-01T01:16:38.734Z,50.40
2023-03-01T01:16:48.764Z,49.80
2023-03-01T01:16:58.713Z,51.30
2023-03-01T01:17:08.714Z,53.50
2023-03-01T01:17:18.731Z,58.70
2023-03-01T01:17:28.663Z,51.20
2023-03-01T01:17:38.867Z,52.60
2023-03-01T01:17:48.722Z,54.00
2023-03-01T01:17:58.711Z,52.30
2023-03-01T01:18:08.968Z,50.40
2023-03-01T01:18:19.557Z,49.60
2023-03-01T01:18:28.668Z,52.30
2023-03-01T01:18:38.748Z,52.20
2023-03-01T01:18:48.748Z,52.30
2023-03-01T01:18:58.813Z,50.20
2023-03-01T01:19:08.872Z,49.90
2023-03-01T01:19:18.756Z,49.90
2023-03-01T01:19:28.788Z,55.30
2023-03-01T01:19:38.814Z,61.80
2023-03-01T01:19:48.817Z,60.80
2023-03-01T01:19:58.706Z,59.00
2023-03-01T01:20:08.828Z,53.60
2023-03-01T01:20:18.720Z,59.60
2023-03-01T01:20:28.695Z,59.10
2023-03-01T01:20:38.725Z,56.70
2023-03-01T01:20:48.837Z,58.30
2023-03-01T01:20:59.485Z,61.80
2023-03-01T01:21:08.698Z,56.40
2023-03-01T01:21:18.659Z,60.10
2023-03-01T01:21:28.693Z,54.80
2023-03-01T01:21:38.731Z,63.20
2023-03-01T01:21:48.710Z,64.40
2023-03-01T01:21:58.762Z,62.60
2023-03-01T01:22:08.833Z,66.30
2023-03-01T01:22:18.752Z,68.00
2023-03-01T01:22:28.685Z,74.90
2023-03-01T01:22:38.688Z,67.50
2023-03-01T01:22:48.638Z,63.10
2023-03-01T01:22:58.735Z,57.90
2023-03-01T01:23:08.801Z,58.60
2023-03-01T01:23:18.688Z,59.60
2023-03-01T01:23:28.715Z,67.00
2023-03-01T01:23:38.639Z,63.40
2023-03-01T01:23:48.712Z,63.00
2023-03-01T01:23:58.688Z,53.70
2023-03-01T01:24:08.691Z,52.80
2023-03-01T01:24:18.719Z,52.80
2023-03-01T01:24:28.746Z,54.10
2023-03-01T01:24:39.539Z,61.80
2023-03-01T01:24:48.659Z,58.80
2023-03-01T01:24:58.766Z,55.40
2023-03-01T01:25:08.724Z,54.60
2023-03-01T01:25:18.799Z,57.30
2023-03-01T01:25:28.709Z,63.40
2023-03-01T01:25:38.641Z,77.50
2023-03-01T01:25:48.635Z,79.90
2023-03-01T01:25:58.720Z,73.70
2023-03-01T01:26:08.734Z,61.70
2023-03-01T01:26:19.517Z,60.80
2023-03-01T01:26:29.139Z,60.80
2023-03-01T01:26:38.716Z,63.10
2023-03-01T01:26:48.680Z,56.10
2023-03-01T01:26:58.728Z,60.50
2023-03-01T01:27:08.945Z,54.00
2023-03-01T01:27:18.699Z,60.10
2023-03-01T01:27:28.812Z,63.20
2023-03-01T01:27:39.518Z,71.90
2023-03-01T01:27:48.662Z,62.40
2023-03-01T01:27:58.648Z,61.90
2023-03-01T01:28:08.724Z,67.60
2023-03-01T01:28:18.656Z,74.70
2023-03-01T01:28:28.688Z,69.30
2023-03-01T01:28:38.667Z,58.70
2023-03-01T01:28:48.641Z,57.90
2023-03-01T01:28:58.754Z,60.50
2023-03-01T01:29:08.648Z,64.40
2023-03-01T01:29:18.657Z,67.60
2023-03-01T01:29:28.634Z,70.90
2023-03-01T01:29:39.439Z,66.40
2023-03-01T01:29:48.702Z,68.30
2023-03-01T01:29:58.622Z,67.10
2023-03-01T01:30:08.624Z,68.60
2023-03-01T01:30:18.616Z,57.60
2023-03-01T01:30:28.657Z,53.90
2023-03-01T01:30:38.663Z,56.10
2023-03-01T01:30:48.635Z,66.40
2023-03-01T01:30:59.545Z,69.90
2023-03-01T01:31:08.742Z,66.40
2023-03-01T01:31:18.702Z,60.50
2023-03-01T01:31:29.622Z,59.00
2023-03-01T01:31:38.660Z,61.50
2023-03-01T01:31:48.655Z,66.40
2023-03-01T01:31:58.714Z,65.10
2023-03-01T01:32:08.772Z,65.70
2023-03-01T01:32:18.681Z,64.20
2023-03-01T01:32:28.759Z,65.40
2023-03-01T01:32:38.615Z,64.80
2023-03-01T01:32:48.627Z,70.00
2023-03-01T01:32:58.863Z,72.90
2023-03-01T01:33:08.746Z,75.50
2023-03-01T01:33:18.616Z,69.00
2023-03-01T01:33:29.681Z,73.60
2023-03-01T01:33:38.596Z,70.10
2023-03-01T01:33:48.854Z,62.30
2023-03-01T01:33:58.648Z,56.20
2023-03-01T01:34:08.902Z,56.00
2023-03-01T01:34:18.618Z,63.70
2023-03-01T01:34:28.609Z,64.00
2023-03-01T01:34:38.600Z,68.70
2023-03-01T01:34:48.641Z,67.70
2023-03-01T01:34:58.648Z,66.30
2023-03-01T01:35:08.608Z,69.90
2023-03-01T01:35:18.643Z,75.80
2023-03-01T01:35:28.703Z,75.00
2023-03-01T01:35:38.808Z,70.30
2023-03-01T01:35:48.964Z,68.50
2023-03-01T01:35:58.698Z,66.40
2023-03-01T01:36:08.624Z,57.70
2023-03-01T01:36:18.611Z,55.70
2023-03-01T01:36:29.078Z,55.60
2023-03-01T01:36:38.645Z,55.30
2023-03-01T01:36:49.471Z,61.40
2023-03-01T01:36:58.784Z,67.30
2023-03-01T01:37:08.619Z,73.40
2023-03-01T01:37:18.600Z,75.20
2023-03-01T01:37:28.595Z,75.60
2023-03-01T01:37:38.620Z,75.00
2023-03-01T01:37:48.815Z,74.50
2023-03-01T01:37:58.649Z,70.30
2023-03-01T01:38:08.747Z,74.40
2023-03-01T01:38:18.606Z,75.00
2023-03-01T01:38:28.596Z,80.10
2023-03-01T01:38:38.597Z,81.00
2023-03-01T01:38:48.585Z,88.00
2023-03-01T01:38:58.581Z,87.60
2023-03-01T01:39:08.588Z,88.40
2023-03-01T01:39:19.092Z,82.40
2023-03-01T01:39:28.586Z,79.10
2023-03-01T01:39:38.587Z,76.80
2023-03-01T01:39:48.754Z,73.80
2023-03-01T01:39:58.586Z,75.80
2023-03-01T01:40:08.601Z,74.70
2023-03-01T01:40:18.630Z,72.80
2023-03-01T01:40:28.590Z,71.90
2023-03-01T01:40:38.589Z,74.10
2023-03-01T01:40:48.633Z,80.70
2023-03-01T01:40:58.602Z,82.20
2023-03-01T01:41:08.601Z,85.00
2023-03-01T01:41:18.648Z,81.60
2023-03-01T01:41:28.696Z,89.50
2023-03-01T01:41:39.565Z,85.00
2023-03-01T01:41:48.644Z,87.40
2023-03-01T01:41:58.698Z,78.60
2023-03-01T01:42:08.569Z,76.60
2023-03-01T01:42:18.594Z,74.10
2023-03-01T01:42:28.616Z,78.30
2023-03-01T01:42:38.620Z,80.90
2023-03-01T01:42:48.579Z,84.30
2023-03-01T01:42:58.599Z,85.80
2023-03-01T01:43:08.601Z,87.70
2023-03-01T01:43:18.616Z,86.30
2023-03-01T01:43:28.613Z,83.00
2023-03-01T01:43:38.631Z,82.30
2023-03-01T01:43:48.606Z,84.90
2023-03-01T01:43:58.636Z,86.80
2023-03-01T01:44:08.559Z,81.80
2023-03-01T01:44:18.715Z,75.50
2023-03-01T01:44:28.615Z,75.70
2023-03-01T01:44:38.589Z,78.10
2023-03-01T01:44:48.809Z,81.80
2023-03-01T01:44:58.616Z,77.20
2023-03-01T01:45:08.711Z,73.00
2023-03-01T01:45:18.754Z,71.60
2023-03-01T01:45:28.745Z,76.10
2023-03-01T01:45:38.570Z,72.10
2023-03-01T01:45:48.764Z,76.90
2023-03-01T01:45:59.548Z,72.10
2023-03-01T01:46:08.629Z,73.50
2023-03-01T01:46:18.588Z,68.00
2023-03-01T01:46:29.120Z,73.40
2023-03-01T01:46:38.654Z,80.80
2023-03-01T01:46:48.645Z,79.50
2023-03-01T01:46:58.602Z,75.30
2023-03-01T01:47:08.586Z,75.20
2023-03-01T01:47:18.611Z,80.90
2023-03-01T01:47:28.643Z,78.90
2023-03-01T01:47:38.709Z,79.70
2023-03-01T01:47:48.576Z,75.30
2023-03-01T01:47:58.557Z,83.30
2023-03-01T01:48:08.680Z,81.10
2023-03-01T01:48:18.716Z,75.30
2023-03-01T01:48:28.577Z,73.10
2023-03-01T01:48:38.596Z,82.20
2023-03-01T01:48:48.539Z,90.10
2023-03-01T01:48:58.561Z,88.20
2023-03-01T01:49:08.564Z,73.70
2023-03-01T01:49:18.574Z,71.50
2023-03-01T01:49:28.615Z,73.60
2023-03-01T01:49:38.612Z,82.10
2023-03-01T01:49:48.625Z,88.40
2023-03-01T01:49:58.560Z,79.50
2023-03-01T01:50:09.471Z,77.10
2023-03-01T01:50:18.642Z,68.70
2023-03-01T01:50:28.578Z,78.20
2023-03-01T01:50:38.556Z,78.20
2023-03-01T01:50:48.565Z,80.00
2023-03-01T01:50:58.528Z,76.70
2023-03-01T01:51:08.606Z,77.00
2023-03-01T01:51:18.773Z,78.90
2023-03-01T01:51:28.571Z,80.70
2023-03-01T01:51:38.573Z,79.50
2023-03-01T01:51:49.492Z,78.10
2023-03-01T01:51:58.633Z,80.50
2023-03-01T01:52:08.586Z,77.70
2023-03-01T01:52:18.607Z,76.60
2023-03-01T01:52:28.585Z,73.80
2023-03-01T01:52:38.534Z,77.00
2023-03-01T01:52:48.559Z,82.40
2023-03-01T01:52:58.699Z,86.30
2023-03-01T01:53:08.585Z,87.10
2023-03-01T01:53:18.549Z,86.20
2023-03-01T01:53:28.705Z,83.20
2023-03-01T01:53:38.531Z,83.80
2023-03-01T01:53:48.558Z,85.30
2023-03-01T01:53:58.550Z,81.70
2023-03-01T01:54:08.587Z,79.90
2023-03-01T01:54:19.489Z,72.70
2023-03-01T01:54:28.658Z,73.80
2023-03-01T01:54:38.538Z,69.40
2023-03-01T01:54:48.629Z,69.00
2023-03-01T01:54:58.531Z,71.70
2023-03-01T01:55:08.550Z,70.70
2023-03-01T01:55:18.573Z,74.20
2023-03-01T01:55:28.591Z,70.90
2023-03-01T01:55:38.536Z,80.30
2023-03-01T01:55:48.524Z,79.40
2023-03-01T01:55:59.528Z,77.30
2023-03-01T01:56:08.547Z,75.00
2023-03-01T01:56:19.571Z,75.30
2023-03-01T01:56:28.933Z,73.70
2023-03-01T01:56:38.552Z,73.90
2023-03-01T01:56:48.522Z,73.50
2023-03-01T01:56:58.512Z,69.20
2023-03-01T01:57:08.574Z,67.60
2023-03-01T01:57:18.747Z,68.20
2023-03-01T01:57:28.636Z,71.30
2023-03-01T01:57:38.558Z,72.90
2023-03-01T01:57:48.530Z,73.20
2023-03-01T01:57:58.517Z,72.60
2023-03-01T01:58:08.530Z,71.40
2023-03-01T01:58:18.531Z,68.60
2023-03-01T01:58:28.605Z,73.80
2023-03-01T01:58:38.560Z,71.80
2023-03-01T01:58:48.531Z,68.00
2023-03-01T01:58:58.518Z,69.00
2023-03-01T01:59:08.509Z,71.20
2023-03-01T01:59:18.506Z,78.80
2023-03-01T01:59:28.527Z,79.70
2023-03-01T01:59:38.515Z,80.80
2023-03-01T01:59:48.538Z,74.40
2023-03-01T01:59:58.589Z,67.70
2023-03-01T02:00:08.514Z,67.50
2023-03-01T02:00:18.510Z,71.20
2023-03-01T02:00:31.819Z,77.50
2023-03-01T02:00:38.627Z,77.10
2023-03-01T02:00:48.511Z,76.00
2023-03-01T02:00:58.500Z,76.30
2023-03-01T02:01:08.533Z,79.80
2023-03-01T02:01:18.502Z,79.90
2023-03-01T02:01:28.495Z,69.00
2023-03-01T02:01:38.524Z,63.90
2023-03-01T02:01:48.516Z,67.40
2023-03-01T02:01:58.563Z,75.80
2023-03-01T02:02:08.538Z,74.30
2023-03-01T02:02:18.552Z,63.60
2023-03-01T02:02:29.662Z,63.00
2023-03-01T02:02:38.720Z,64.60
2023-03-01T02:02:48.666Z,75.10
2023-03-01T02:02:58.619Z,73.60
2023-03-01T02:03:08.592Z,72.30
2023-03-01T02:03:18.708Z,70.00
2023-03-01T02:03:28.673Z,68.50
2023-03-01T02:03:38.861Z,59.90
2023-03-01T02:03:48.579Z,58.70
2023-03-01T02:03:58.539Z,57.10
2023-03-01T02:04:08.491Z,68.10
2023-03-01T02:04:18.485Z,71.30
2023-03-01T02:04:28.541Z,67.00
2023-03-01T02:04:45.586Z,59.50
2023-03-01T02:04:48.593Z,56.20
2023-03-01T02:04:58.525Z,57.50
2023-03-01T02:05:08.591Z,57.70
2023-03-01T02:05:18.514Z,59.30
2023-03-01T02:05:28.479Z,65.30
2023-03-01T02:05:38.506Z,69.70
2023-03-01T02:05:55.015Z,69.50
2023-03-01T02:05:58.481Z,67.90
2023-03-01T02:06:08.491Z,72.90
2023-03-01T02:06:18.522Z,83.50
2023-03-01T02:06:28.859Z,81.50
2023-03-01T02:06:38.499Z,73.40
2023-03-01T02:06:48.531Z,66.80
2023-03-01T02:06:58.486Z,66.70
2023-03-01T02:07:08.518Z,67.80
2023-03-01T02:07:18.532Z,66.30
2023-03-01T02:07:28.478Z,67.70
2023-03-01T02:07:38.524Z,69.20
2023-03-01T02:07:48.538Z,64.20
2023-03-01T02:07:58.486Z,64.80
2023-03-01T02:08:08.580Z,63.00
2023-03-01T02:08:18.506Z,63.30
2023-03-01T02:08:28.542Z,63.90
2023-03-01T02:08:38.526Z,73.60
2023-03-01T02:08:49.019Z,76.00